Forside
METAR-TAF:

METAR-TAF

Lufthavne :

Halifax, Nova Scotia, Canada

Breddekreds: 44-53N, længdekreds: 063-30W, højde: 145 m

Aktuelle vejr

Denne rapport blev lavet for 58 minutter siden, kl. 08:00 UTC
Vind 5 kt fra sydvest
Temperatur -7°C
Fugtighed 67%
Tryk 1026 hPa
Sigt: 24.1 km
skyfri

METAR: CYHZ 200800Z 23005KT 15SM SKC M07/M12 A3029 RMK SLP267

Tid: 05:58 (08:58 UTC)

Vejrudsigter

Denne rapport blev lavet for 19 minutter siden, kl. 08:39 UTC
Foreløbig gælder fra 20 på 09 UTC til 21 på 06 UTC
Vind 5 kt fra sydvest
Sigt: 10 km
skyfri
ændring
fra 20 på 13 UTC til 20 på 15 UTC
Vind 12 kt fra vest med vindstød på up til 22 kt
Fra 20 på 1700 UTC
Vind 12 kt fra vest med vindstød på up til 22 kt
Sigt: 10 km
Spredte skyer i en højde af 5000 ft
ændring
fra 20 på 22 UTC til 20 på 24 UTC
Vind 7 kt fra sydvest

TAF: CYHZ 200839Z 2009/2106 23005KT P6SM SKC BECMG 2013/2015 27012G22KT FM201700 27012G22KT P6SM SCT050 BECMG 2022/2024 23007KT RMK NXT FCST BY 201200Z

Vejrobservationer og prognoser fra mere end 4000 lufthavne (METAR og TAF).

De gule og røde prikker repræsenterer de meteorologiske stationer.

Flyt musen over at se navnet på stationen.

Så klik over at se vejr observationer og prognoser.

At skifte det kort: Klik på de grønne knapper med et sort kors for at zoome ind; på den grønne knap med en bindestreg for at zoome ud; eller på de grønne pile for tilstødende kort.


METAR-TAF: